sensor_id;sensor_type;location;lat;lon;timestamp;P1;durP1;ratioP1;P2;durP2;ratioP2
65033;SDS011;51601;51.356;12.458;2022-12-24T00:03:35;8.27;;;2.38;;
65033;SDS011;51601;51.356;12.458;2022-12-24T00:07:53;5.75;;;1.80;;
65033;SDS011;51601;51.356;12.458;2022-12-24T00:12:12;6.03;;;2.23;;
65033;SDS011;51601;51.356;12.458;2022-12-24T00:16:32;9.13;;;2.45;;
65033;SDS011;51601;51.356;12.458;2022-12-24T00:20:50;7.40;;;2.40;;
65033;SDS011;51601;51.356;12.458;2022-12-24T00:25:08;4.13;;;1.77;;
65033;SDS011;51601;51.356;12.458;2022-12-24T00:29:28;6.82;;;2.10;;
65033;SDS011;51601;51.356;12.458;2022-12-24T00:33:47;9.43;;;3.03;;
65033;SDS011;51601;51.356;12.458;2022-12-24T00:38:05;8.27;;;2.40;;
65033;SDS011;51601;51.356;12.458;2022-12-24T00:42:23;12.65;;;2.80;;
65033;SDS011;51601;51.356;12.458;2022-12-24T00:46:43;9.77;;;2.85;;
65033;SDS011;51601;51.356;12.458;2022-12-24T00:51:02;10.32;;;2.85;;
65033;SDS011;51601;51.356;12.458;2022-12-24T00:55:20;9.23;;;2.90;;
65033;SDS011;51601;51.356;12.458;2022-12-24T00:59:38;11.82;;;3.35;;
65033;SDS011;51601;51.356;12.458;2022-12-24T01:03:58;11.70;;;2.97;;
65033;SDS011;51601;51.356;12.458;2022-12-24T01:08:30;7.73;;;2.53;;
65033;SDS011;51601;51.356;12.458;2022-12-24T01:12:48;8.70;;;2.45;;
65033;SDS011;51601;51.356;12.458;2022-12-24T01:17:06;6.75;;;2.10;;
65033;SDS011;51601;51.356;12.458;2022-12-24T01:22:00;6.33;;;1.77;;
65033;SDS011;51601;51.356;12.458;2022-12-24T01:26:34;10.27;;;2.70;;
65033;SDS011;51601;51.356;12.458;2022-12-24T01:30:53;15.05;;;3.08;;
65033;SDS011;51601;51.356;12.458;2022-12-24T01:35:13;6.50;;;2.10;;
65033;SDS011;51601;51.356;12.458;2022-12-24T01:39:32;8.93;;;2.23;;
65033;SDS011;51601;51.356;12.458;2022-12-24T01:43:52;7.70;;;2.03;;
65033;SDS011;51601;51.356;12.458;2022-12-24T01:48:15;8.65;;;2.33;;
65033;SDS011;51601;51.356;12.458;2022-12-24T01:52:38;12.90;;;3.23;;
65033;SDS011;51601;51.356;12.458;2022-12-24T01:56:58;9.57;;;2.42;;
65033;SDS011;51601;51.356;12.458;2022-12-24T02:01:20;10.25;;;2.03;;
65033;SDS011;51601;51.356;12.458;2022-12-24T02:05:41;9.20;;;2.00;;
65033;SDS011;51601;51.356;12.458;2022-12-24T02:10:07;11.68;;;2.90;;
65033;SDS011;51601;51.356;12.458;2022-12-24T02:14:28;10.52;;;2.78;;
65033;SDS011;51601;51.356;12.458;2022-12-24T02:18:49;12.85;;;2.67;;
65033;SDS011;51601;51.356;12.458;2022-12-24T02:23:23;9.90;;;2.50;;
65033;SDS011;51601;51.356;12.458;2022-12-24T02:27:58;9.18;;;2.75;;
65033;SDS011;51601;51.356;12.458;2022-12-24T02:32:31;10.10;;;2.50;;
65033;SDS011;51601;51.356;12.458;2022-12-24T02:36:54;7.30;;;2.17;;
65033;SDS011;51601;51.356;12.458;2022-12-24T02:41:17;10.60;;;2.20;;
65033;SDS011;51601;51.356;12.458;2022-12-24T02:45:41;8.52;;;2.30;;
65033;SDS011;51601;51.356;12.458;2022-12-24T02:50:10;9.43;;;1.87;;
65033;SDS011;51601;51.356;12.458;2022-12-24T02:54:32;9.75;;;1.80;;
65033;SDS011;51601;51.356;12.458;2022-12-24T02:58:55;7.97;;;2.40;;
65033;SDS011;51601;51.356;12.458;2022-12-24T03:03:25;4.63;;;1.20;;
65033;SDS011;51601;51.356;12.458;2022-12-24T03:07:57;4.43;;;1.20;;
65033;SDS011;51601;51.356;12.458;2022-12-24T03:12:23;7.53;;;1.90;;
65033;SDS011;51601;51.356;12.458;2022-12-24T03:16:48;5.82;;;1.30;;
65033;SDS011;51601;51.356;12.458;2022-12-24T03:21:08;5.63;;;1.80;;
65033;SDS011;51601;51.356;12.458;2022-12-24T03:25:29;7.28;;;1.50;;
65033;SDS011;51601;51.356;12.458;2022-12-24T03:29:48;4.93;;;1.27;;
65033;SDS011;51601;51.356;12.458;2022-12-24T03:34:06;8.57;;;2.07;;
65033;SDS011;51601;51.356;12.458;2022-12-24T03:38:25;5.65;;;1.50;;
65033;SDS011;51601;51.356;12.458;2022-12-24T03:42:44;6.95;;;1.73;;
65033;SDS011;51601;51.356;12.458;2022-12-24T03:47:04;6.95;;;1.67;;
65033;SDS011;51601;51.356;12.458;2022-12-24T03:51:23;5.23;;;1.30;;
65033;SDS011;51601;51.356;12.458;2022-12-24T03:55:43;4.50;;;1.52;;
65033;SDS011;51601;51.356;12.458;2022-12-24T04:00:03;8.52;;;1.60;;
65033;SDS011;51601;51.356;12.458;2022-12-24T04:04:28;7.43;;;2.13;;
65033;SDS011;51601;51.356;12.458;2022-12-24T04:08:49;6.25;;;1.63;;
65033;SDS011;51601;51.356;12.458;2022-12-24T04:13:07;6.47;;;1.48;;
65033;SDS011;51601;51.356;12.458;2022-12-24T04:17:27;8.27;;;2.37;;
65033;SDS011;51601;51.356;12.458;2022-12-24T04:21:46;5.22;;;1.55;;
65033;SDS011;51601;51.356;12.458;2022-12-24T04:26:05;6.40;;;1.25;;
65033;SDS011;51601;51.356;12.458;2022-12-24T04:30:26;3.80;;;1.17;;
65033;SDS011;51601;51.356;12.458;2022-12-24T04:34:45;7.43;;;1.53;;
65033;SDS011;51601;51.356;12.458;2022-12-24T04:39:05;7.07;;;1.60;;
65033;SDS011;51601;51.356;12.458;2022-12-24T04:43:23;4.65;;;1.38;;
65033;SDS011;51601;51.356;12.458;2022-12-24T04:47:41;8.83;;;1.70;;
65033;SDS011;51601;51.356;12.458;2022-12-24T04:52:00;6.78;;;1.63;;
65033;SDS011;51601;51.356;12.458;2022-12-24T04:56:21;7.70;;;2.20;;
65033;SDS011;51601;51.356;12.458;2022-12-24T05:00:41;6.30;;;1.83;;
65033;SDS011;51601;51.356;12.458;2022-12-24T05:04:59;5.22;;;1.40;;
65033;SDS011;51601;51.356;12.458;2022-12-24T05:09:19;6.95;;;1.50;;
65033;SDS011;51601;51.356;12.458;2022-12-24T05:13:39;6.07;;;1.58;;
65033;SDS011;51601;51.356;12.458;2022-12-24T05:18:03;4.20;;;1.30;;
65033;SDS011;51601;51.356;12.458;2022-12-24T05:22:21;10.98;;;2.17;;
65033;SDS011;51601;51.356;12.458;2022-12-24T05:26:59;4.75;;;1.77;;
65033;SDS011;51601;51.356;12.458;2022-12-24T05:31:19;6.17;;;1.50;;
65033;SDS011;51601;51.356;12.458;2022-12-24T05:35:40;8.48;;;1.60;;
65033;SDS011;51601;51.356;12.458;2022-12-24T05:39:58;5.07;;;1.50;;
65033;SDS011;51601;51.356;12.458;2022-12-24T05:44:17;7.77;;;2.00;;
65033;SDS011;51601;51.356;12.458;2022-12-24T05:48:37;11.82;;;1.60;;
65033;SDS011;51601;51.356;12.458;2022-12-24T05:52:55;5.85;;;1.42;;
65033;SDS011;51601;51.356;12.458;2022-12-24T05:57:13;7.18;;;1.70;;
65033;SDS011;51601;51.356;12.458;2022-12-24T06:01:32;8.03;;;1.90;;
65033;SDS011;51601;51.356;12.458;2022-12-24T06:05:59;7.75;;;1.90;;
65033;SDS011;51601;51.356;12.458;2022-12-24T06:10:19;7.80;;;1.80;;
65033;SDS011;51601;51.356;12.458;2022-12-24T06:14:37;8.67;;;1.80;;
65033;SDS011;51601;51.356;12.458;2022-12-24T06:18:57;6.60;;;1.50;;
65033;SDS011;51601;51.356;12.458;2022-12-24T06:23:17;9.60;;;2.10;;
65033;SDS011;51601;51.356;12.458;2022-12-24T06:27:35;5.37;;;1.83;;
65033;SDS011;51601;51.356;12.458;2022-12-24T06:31:53;7.28;;;1.90;;
65033;SDS011;51601;51.356;12.458;2022-12-24T06:36:13;5.78;;;1.77;;
65033;SDS011;51601;51.356;12.458;2022-12-24T06:40:36;7.65;;;1.75;;
65033;SDS011;51601;51.356;12.458;2022-12-24T06:44:56;11.53;;;2.10;;
65033;SDS011;51601;51.356;12.458;2022-12-24T06:49:23;7.55;;;1.80;;
65033;SDS011;51601;51.356;12.458;2022-12-24T06:53:43;8.35;;;1.75;;
65033;SDS011;51601;51.356;12.458;2022-12-24T06:58:03;9.13;;;1.93;;
65033;SDS011;51601;51.356;12.458;2022-12-24T07:02:21;7.38;;;2.20;;
65033;SDS011;51601;51.356;12.458;2022-12-24T07:06:39;11.20;;;2.00;;
65033;SDS011;51601;51.356;12.458;2022-12-24T07:10:58;6.27;;;1.60;;
65033;SDS011;51601;51.356;12.458;2022-12-24T07:15:18;5.45;;;1.60;;
65033;SDS011;51601;51.356;12.458;2022-12-24T07:19:36;10.88;;;2.20;;
65033;SDS011;51601;51.356;12.458;2022-12-24T07:23:54;5.95;;;1.40;;
65033;SDS011;51601;51.356;12.458;2022-12-24T07:28:13;9.20;;;1.90;;
65033;SDS011;51601;51.356;12.458;2022-12-24T07:32:36;9.63;;;1.90;;
65033;SDS011;51601;51.356;12.458;2022-12-24T07:36:54;10.18;;;1.63;;
65033;SDS011;51601;51.356;12.458;2022-12-24T07:41:12;7.10;;;1.60;;
65033;SDS011;51601;51.356;12.458;2022-12-24T07:45:32;8.02;;;1.98;;
65033;SDS011;51601;51.356;12.458;2022-12-24T07:49:52;4.55;;;1.48;;
65033;SDS011;51601;51.356;12.458;2022-12-24T07:54:10;4.00;;;1.30;;
65033;SDS011;51601;51.356;12.458;2022-12-24T07:58:28;6.22;;;1.60;;
65033;SDS011;51601;51.356;12.458;2022-12-24T08:02:47;4.97;;;1.40;;
65033;SDS011;51601;51.356;12.458;2022-12-24T08:07:07;5.90;;;1.38;;
65033;SDS011;51601;51.356;12.458;2022-12-24T08:11:25;7.13;;;1.40;;
65033;SDS011;51601;51.356;12.458;2022-12-24T08:15:43;9.13;;;1.98;;
65033;SDS011;51601;51.356;12.458;2022-12-24T08:20:03;7.95;;;1.75;;
65033;SDS011;51601;51.356;12.458;2022-12-24T08:24:22;7.43;;;1.67;;
65033;SDS011;51601;51.356;12.458;2022-12-24T08:28:40;8.18;;;1.77;;
65033;SDS011;51601;51.356;12.458;2022-12-24T08:32:58;5.93;;;1.55;;
65033;SDS011;51601;51.356;12.458;2022-12-24T08:37:18;6.63;;;1.73;;
65033;SDS011;51601;51.356;12.458;2022-12-24T08:41:37;8.85;;;1.77;;
65033;SDS011;51601;51.356;12.458;2022-12-24T08:46:00;10.07;;;1.80;;
65033;SDS011;51601;51.356;12.458;2022-12-24T08:50:20;7.35;;;1.95;;
65033;SDS011;51601;51.356;12.458;2022-12-24T08:54:42;7.97;;;2.13;;
65033;SDS011;51601;51.356;12.458;2022-12-24T08:59:02;5.75;;;1.70;;
65033;SDS011;51601;51.356;12.458;2022-12-24T09:03:20;6.93;;;1.70;;
65033;SDS011;51601;51.356;12.458;2022-12-24T09:07:44;9.17;;;1.80;;
65033;SDS011;51601;51.356;12.458;2022-12-24T09:12:04;9.57;;;1.85;;
65033;SDS011;51601;51.356;12.458;2022-12-24T09:16:23;11.90;;;2.03;;
65033;SDS011;51601;51.356;12.458;2022-12-24T09:20:41;9.23;;;2.07;;
65033;SDS011;51601;51.356;12.458;2022-12-24T09:25:03;8.00;;;2.10;;
65033;SDS011;51601;51.356;12.458;2022-12-24T09:29:25;8.50;;;2.22;;
65033;SDS011;51601;51.356;12.458;2022-12-24T09:33:45;8.30;;;1.92;;
65033;SDS011;51601;51.356;12.458;2022-12-24T09:38:06;8.57;;;2.37;;
65033;SDS011;51601;51.356;12.458;2022-12-24T09:42:27;7.45;;;1.50;;
65033;SDS011;51601;51.356;12.458;2022-12-24T09:47:02;8.25;;;1.65;;
65033;SDS011;51601;51.356;12.458;2022-12-24T09:51:28;12.30;;;2.67;;
65033;SDS011;51601;51.356;12.458;2022-12-24T09:55:53;9.23;;;1.80;;
65033;SDS011;51601;51.356;12.458;2022-12-24T10:00:18;10.27;;;2.05;;
65033;SDS011;51601;51.356;12.458;2022-12-24T10:04:42;8.57;;;2.47;;
65033;SDS011;51601;51.356;12.458;2022-12-24T10:09:04;10.77;;;1.80;;
65033;SDS011;51601;51.356;12.458;2022-12-24T10:13:36;9.38;;;2.10;;
65033;SDS011;51601;51.356;12.458;2022-12-24T10:18:09;9.18;;;2.22;;
65033;SDS011;51601;51.356;12.458;2022-12-24T10:22:52;11.07;;;2.00;;
65033;SDS011;51601;51.356;12.458;2022-12-24T10:27:15;6.70;;;1.65;;
65033;SDS011;51601;51.356;12.458;2022-12-24T10:31:48;9.60;;;2.00;;
65033;SDS011;51601;51.356;12.458;2022-12-24T10:36:14;8.97;;;2.00;;
65033;SDS011;51601;51.356;12.458;2022-12-24T10:40:37;7.05;;;1.50;;
65033;SDS011;51601;51.356;12.458;2022-12-24T10:45:00;6.93;;;1.70;;
65033;SDS011;51601;51.356;12.458;2022-12-24T10:49:29;9.00;;;1.87;;
65033;SDS011;51601;51.356;12.458;2022-12-24T10:53:54;5.65;;;1.80;;
65033;SDS011;51601;51.356;12.458;2022-12-24T10:58:18;6.15;;;1.70;;
65033;SDS011;51601;51.356;12.458;2022-12-24T11:02:38;7.93;;;1.80;;
65033;SDS011;51601;51.356;12.458;2022-12-24T11:06:57;8.77;;;1.60;;
65033;SDS011;51601;51.356;12.458;2022-12-24T11:11:18;6.47;;;1.60;;
65033;SDS011;51601;51.356;12.458;2022-12-24T11:15:40;8.23;;;1.80;;
65033;SDS011;51601;51.356;12.458;2022-12-24T11:19:59;6.53;;;1.70;;
65033;SDS011;51601;51.356;12.458;2022-12-24T11:24:22;5.70;;;1.52;;
65033;SDS011;51601;51.356;12.458;2022-12-24T11:28:45;7.97;;;1.70;;
65033;SDS011;51601;51.356;12.458;2022-12-24T11:33:23;6.87;;;1.70;;
65033;SDS011;51601;51.356;12.458;2022-12-24T11:37:42;5.43;;;1.40;;
65033;SDS011;51601;51.356;12.458;2022-12-24T11:42:00;6.97;;;2.17;;
65033;SDS011;51601;51.356;12.458;2022-12-24T11:46:20;6.97;;;1.30;;
65033;SDS011;51601;51.356;12.458;2022-12-24T11:50:56;10.60;;;1.40;;
65033;SDS011;51601;51.356;12.458;2022-12-24T11:55:17;6.40;;;1.50;;
65033;SDS011;51601;51.356;12.458;2022-12-24T11:59:41;4.95;;;1.67;;
65033;SDS011;51601;51.356;12.458;2022-12-24T12:04:05;7.63;;;1.83;;
65033;SDS011;51601;51.356;12.458;2022-12-24T12:08:31;7.80;;;1.70;;
65033;SDS011;51601;51.356;12.458;2022-12-24T12:12:56;6.63;;;1.73;;
65033;SDS011;51601;51.356;12.458;2022-12-24T12:17:21;8.20;;;2.23;;
65033;SDS011;51601;51.356;12.458;2022-12-24T12:21:47;7.80;;;1.88;;
65033;SDS011;51601;51.356;12.458;2022-12-24T12:26:09;7.25;;;1.40;;
65033;SDS011;51601;51.356;12.458;2022-12-24T12:30:33;5.70;;;1.67;;
65033;SDS011;51601;51.356;12.458;2022-12-24T12:34:57;7.50;;;1.70;;
65033;SDS011;51601;51.356;12.458;2022-12-24T12:39:21;8.68;;;1.75;;
65033;SDS011;51601;51.356;12.458;2022-12-24T12:43:47;6.80;;;1.73;;
65033;SDS011;51601;51.356;12.458;2022-12-24T12:48:38;8.23;;;2.13;;
65033;SDS011;51601;51.356;12.458;2022-12-24T12:53:23;6.50;;;2.30;;
65033;SDS011;51601;51.356;12.458;2022-12-24T12:57:50;9.80;;;2.60;;
65033;SDS011;51601;51.356;12.458;2022-12-24T13:02:24;9.37;;;1.97;;
65033;SDS011;51601;51.356;12.458;2022-12-24T13:12:02;7.00;;;1.90;;
65033;SDS011;51601;51.356;12.458;2022-12-24T13:21:28;8.60;;;1.60;;
65033;SDS011;51601;51.356;12.458;2022-12-24T13:25:48;9.45;;;2.00;;
65033;SDS011;51601;51.356;12.458;2022-12-24T13:30:30;7.82;;;1.77;;
65033;SDS011;51601;51.356;12.458;2022-12-24T13:34:52;8.87;;;1.77;;
65033;SDS011;51601;51.356;12.458;2022-12-24T13:39:18;9.43;;;2.17;;
65033;SDS011;51601;51.356;12.458;2022-12-24T13:48:29;6.10;;;2.10;;
65033;SDS011;51601;51.356;12.458;2022-12-24T13:52:50;8.93;;;2.38;;
65033;SDS011;51601;51.356;12.458;2022-12-24T13:57:27;11.63;;;3.10;;
65033;SDS011;51601;51.356;12.458;2022-12-24T14:01:50;12.63;;;2.53;;
65033;SDS011;51601;51.356;12.458;2022-12-24T14:06:09;9.67;;;2.70;;
65033;SDS011;51601;51.356;12.458;2022-12-24T14:10:30;12.65;;;2.65;;
65033;SDS011;51601;51.356;12.458;2022-12-24T14:14:55;7.72;;;2.30;;
65033;SDS011;51601;51.356;12.458;2022-12-24T14:19:15;9.60;;;2.77;;
65033;SDS011;51601;51.356;12.458;2022-12-24T14:23:40;10.20;;;2.60;;
65033;SDS011;51601;51.356;12.458;2022-12-24T14:28:04;13.10;;;3.63;;
65033;SDS011;51601;51.356;12.458;2022-12-24T14:32:33;13.47;;;2.63;;
65033;SDS011;51601;51.356;12.458;2022-12-24T14:36:53;9.07;;;2.40;;
65033;SDS011;51601;51.356;12.458;2022-12-24T14:41:18;11.93;;;2.88;;
65033;SDS011;51601;51.356;12.458;2022-12-24T14:45:50;11.27;;;2.42;;
65033;SDS011;51601;51.356;12.458;2022-12-24T14:50:21;9.37;;;2.23;;
65033;SDS011;51601;51.356;12.458;2022-12-24T14:59:46;9.55;;;2.50;;
65033;SDS011;51601;51.356;12.458;2022-12-24T15:04:13;10.67;;;2.57;;
65033;SDS011;51601;51.356;12.458;2022-12-24T15:08:37;8.20;;;2.53;;
65033;SDS011;51601;51.356;12.458;2022-12-24T15:13:00;8.95;;;2.72;;
65033;SDS011;51601;51.356;12.458;2022-12-24T15:17:22;10.87;;;2.70;;
65033;SDS011;51601;51.356;12.458;2022-12-24T15:21:40;11.35;;;2.60;;
65033;SDS011;51601;51.356;12.458;2022-12-24T15:26:06;10.75;;;3.35;;
65033;SDS011;51601;51.356;12.458;2022-12-24T15:30:31;11.77;;;3.15;;
65033;SDS011;51601;51.356;12.458;2022-12-24T15:34:50;12.90;;;3.00;;
65033;SDS011;51601;51.356;12.458;2022-12-24T15:39:12;11.88;;;2.83;;
65033;SDS011;51601;51.356;12.458;2022-12-24T15:43:38;12.07;;;2.90;;
65033;SDS011;51601;51.356;12.458;2022-12-24T15:47:59;11.60;;;3.10;;
65033;SDS011;51601;51.356;12.458;2022-12-24T15:52:23;12.85;;;3.17;;
65033;SDS011;51601;51.356;12.458;2022-12-24T15:56:44;13.77;;;3.10;;
65033;SDS011;51601;51.356;12.458;2022-12-24T16:05:45;12.15;;;2.67;;
65033;SDS011;51601;51.356;12.458;2022-12-24T16:10:37;11.27;;;3.83;;
65033;SDS011;51601;51.356;12.458;2022-12-24T16:15:43;15.50;;;3.70;;
65033;SDS011;51601;51.356;12.458;2022-12-24T16:20:20;15.97;;;3.57;;
65033;SDS011;51601;51.356;12.458;2022-12-24T16:24:55;13.15;;;3.67;;
65033;SDS011;51601;51.356;12.458;2022-12-24T16:29:29;12.38;;;3.28;;
65033;SDS011;51601;51.356;12.458;2022-12-24T16:34:04;12.83;;;2.80;;
65033;SDS011;51601;51.356;12.458;2022-12-24T16:38:40;11.70;;;3.28;;
65033;SDS011;51601;51.356;12.458;2022-12-24T16:43:31;15.68;;;2.97;;
65033;SDS011;51601;51.356;12.458;2022-12-24T16:48:23;11.23;;;3.00;;
65033;SDS011;51601;51.356;12.458;2022-12-24T16:52:58;12.43;;;3.00;;
65033;SDS011;51601;51.356;12.458;2022-12-24T16:57:33;16.25;;;3.40;;
65033;SDS011;51601;51.356;12.458;2022-12-24T17:02:09;12.77;;;3.30;;
65033;SDS011;51601;51.356;12.458;2022-12-24T17:06:47;12.67;;;3.10;;
65033;SDS011;51601;51.356;12.458;2022-12-24T17:11:22;10.20;;;3.35;;
65033;SDS011;51601;51.356;12.458;2022-12-24T17:15:59;11.82;;;3.00;;
65033;SDS011;51601;51.356;12.458;2022-12-24T17:20:33;12.50;;;2.80;;
65033;SDS011;51601;51.356;12.458;2022-12-24T17:25:09;12.68;;;2.80;;
65033;SDS011;51601;51.356;12.458;2022-12-24T17:29:45;13.65;;;3.55;;
65033;SDS011;51601;51.356;12.458;2022-12-24T17:34:20;12.23;;;3.10;;
65033;SDS011;51601;51.356;12.458;2022-12-24T17:38:54;8.13;;;2.80;;
65033;SDS011;51601;51.356;12.458;2022-12-24T17:43:29;16.52;;;3.30;;
65033;SDS011;51601;51.356;12.458;2022-12-24T17:48:03;9.07;;;3.00;;
65033;SDS011;51601;51.356;12.458;2022-12-24T17:52:39;11.00;;;2.60;;
65033;SDS011;51601;51.356;12.458;2022-12-24T17:57:13;9.40;;;2.78;;
65033;SDS011;51601;51.356;12.458;2022-12-24T18:01:47;10.52;;;2.70;;
65033;SDS011;51601;51.356;12.458;2022-12-24T18:06:21;9.33;;;2.80;;
65033;SDS011;51601;51.356;12.458;2022-12-24T18:10:57;10.77;;;3.33;;
65033;SDS011;51601;51.356;12.458;2022-12-24T18:15:32;9.02;;;2.70;;
65033;SDS011;51601;51.356;12.458;2022-12-24T18:20:07;9.07;;;2.87;;
65033;SDS011;51601;51.356;12.458;2022-12-24T18:24:42;11.20;;;3.03;;
65033;SDS011;51601;51.356;12.458;2022-12-24T18:29:17;7.95;;;2.72;;
65033;SDS011;51601;51.356;12.458;2022-12-24T18:33:52;9.20;;;2.85;;
65033;SDS011;51601;51.356;12.458;2022-12-24T18:38:27;9.97;;;2.70;;
65033;SDS011;51601;51.356;12.458;2022-12-24T18:43:01;14.20;;;3.22;;
65033;SDS011;51601;51.356;12.458;2022-12-24T18:47:37;12.13;;;3.38;;
65033;SDS011;51601;51.356;12.458;2022-12-24T18:52:11;13.33;;;3.30;;
65033;SDS011;51601;51.356;12.458;2022-12-24T18:56:54;10.15;;;3.03;;
65033;SDS011;51601;51.356;12.458;2022-12-24T19:01:28;10.80;;;2.60;;
65033;SDS011;51601;51.356;12.458;2022-12-24T19:06:06;12.30;;;3.33;;
65033;SDS011;51601;51.356;12.458;2022-12-24T19:10:41;11.73;;;3.20;;
65033;SDS011;51601;51.356;12.458;2022-12-24T19:15:16;13.23;;;3.22;;
65033;SDS011;51601;51.356;12.458;2022-12-24T19:19:50;12.82;;;3.40;;
65033;SDS011;51601;51.356;12.458;2022-12-24T19:24:25;12.40;;;3.33;;
65033;SDS011;51601;51.356;12.458;2022-12-24T19:28:59;12.98;;;3.85;;
65033;SDS011;51601;51.356;12.458;2022-12-24T19:33:35;12.40;;;3.47;;
65033;SDS011;51601;51.356;12.458;2022-12-24T19:38:14;17.37;;;4.43;;
65033;SDS011;51601;51.356;12.458;2022-12-24T19:42:49;12.85;;;3.90;;
65033;SDS011;51601;51.356;12.458;2022-12-24T19:47:24;14.10;;;4.80;;
65033;SDS011;51601;51.356;12.458;2022-12-24T19:52:01;12.57;;;3.83;;
65033;SDS011;51601;51.356;12.458;2022-12-24T19:56:35;16.30;;;4.20;;
65033;SDS011;51601;51.356;12.458;2022-12-24T20:01:12;15.90;;;4.75;;
65033;SDS011;51601;51.356;12.458;2022-12-24T20:05:48;16.48;;;4.40;;
65033;SDS011;51601;51.356;12.458;2022-12-24T20:10:22;20.63;;;4.50;;
65033;SDS011;51601;51.356;12.458;2022-12-24T20:14:56;14.02;;;4.97;;
65033;SDS011;51601;51.356;12.458;2022-12-24T20:19:31;13.77;;;4.57;;
65033;SDS011;51601;51.356;12.458;2022-12-24T20:24:07;17.13;;;4.40;;
65033;SDS011;51601;51.356;12.458;2022-12-24T20:28:41;16.15;;;4.32;;
65033;SDS011;51601;51.356;12.458;2022-12-24T20:33:16;15.98;;;4.28;;
65033;SDS011;51601;51.356;12.458;2022-12-24T20:37:51;17.00;;;4.50;;
65033;SDS011;51601;51.356;12.458;2022-12-24T20:42:25;18.30;;;4.22;;
65033;SDS011;51601;51.356;12.458;2022-12-24T20:46:59;19.48;;;5.63;;
65033;SDS011;51601;51.356;12.458;2022-12-24T20:51:33;19.65;;;4.70;;
65033;SDS011;51601;51.356;12.458;2022-12-24T20:56:08;21.37;;;4.90;;
65033;SDS011;51601;51.356;12.458;2022-12-24T21:00:43;11.15;;;4.65;;
65033;SDS011;51601;51.356;12.458;2022-12-24T21:05:18;18.30;;;4.93;;
65033;SDS011;51601;51.356;12.458;2022-12-24T21:09:52;19.83;;;5.27;;
65033;SDS011;51601;51.356;12.458;2022-12-24T21:14:28;16.88;;;5.65;;
65033;SDS011;51601;51.356;12.458;2022-12-24T21:19:02;13.98;;;4.43;;
65033;SDS011;51601;51.356;12.458;2022-12-24T21:23:37;19.60;;;5.23;;
65033;SDS011;51601;51.356;12.458;2022-12-24T21:28:12;16.27;;;5.07;;
65033;SDS011;51601;51.356;12.458;2022-12-24T21:32:50;14.50;;;4.53;;
65033;SDS011;51601;51.356;12.458;2022-12-24T21:37:24;19.70;;;5.57;;
65033;SDS011;51601;51.356;12.458;2022-12-24T21:41:58;20.10;;;5.20;;
65033;SDS011;51601;51.356;12.458;2022-12-24T21:46:32;18.25;;;5.95;;
65033;SDS011;51601;51.356;12.458;2022-12-24T21:51:08;20.25;;;5.05;;
65033;SDS011;51601;51.356;12.458;2022-12-24T21:55:42;16.33;;;4.53;;
65033;SDS011;51601;51.356;12.458;2022-12-24T22:00:17;16.45;;;4.40;;
65033;SDS011;51601;51.356;12.458;2022-12-24T22:05:01;14.20;;;4.35;;
65033;SDS011;51601;51.356;12.458;2022-12-24T22:09:37;15.57;;;4.00;;
65033;SDS011;51601;51.356;12.458;2022-12-24T22:14:35;16.08;;;4.50;;
65033;SDS011;51601;51.356;12.458;2022-12-24T22:19:09;17.40;;;4.25;;
65033;SDS011;51601;51.356;12.458;2022-12-24T22:23:43;22.52;;;4.57;;
65033;SDS011;51601;51.356;12.458;2022-12-24T22:28:19;20.53;;;4.90;;
65033;SDS011;51601;51.356;12.458;2022-12-24T22:32:53;20.02;;;4.78;;
65033;SDS011;51601;51.356;12.458;2022-12-24T22:37:27;16.25;;;4.82;;
65033;SDS011;51601;51.356;12.458;2022-12-24T22:42:01;18.83;;;5.20;;
65033;SDS011;51601;51.356;12.458;2022-12-24T22:46:37;14.75;;;4.57;;
65033;SDS011;51601;51.356;12.458;2022-12-24T22:51:12;19.58;;;4.82;;
65033;SDS011;51601;51.356;12.458;2022-12-24T22:55:53;18.03;;;5.63;;
65033;SDS011;51601;51.356;12.458;2022-12-24T23:00:38;22.55;;;5.53;;
65033;SDS011;51601;51.356;12.458;2022-12-24T23:05:16;19.08;;;5.80;;
65033;SDS011;51601;51.356;12.458;2022-12-24T23:09:34;23.02;;;5.78;;
65033;SDS011;51601;51.356;12.458;2022-12-24T23:13:52;16.90;;;5.33;;
65033;SDS011;51601;51.356;12.458;2022-12-24T23:18:29;17.60;;;4.80;;
65033;SDS011;51601;51.356;12.458;2022-12-24T23:22:48;17.23;;;5.00;;
65033;SDS011;51601;51.356;12.458;2022-12-24T23:27:08;17.77;;;5.10;;
65033;SDS011;51601;51.356;12.458;2022-12-24T23:31:26;16.95;;;5.32;;
65033;SDS011;51601;51.356;12.458;2022-12-24T23:35:44;16.48;;;4.95;;
65033;SDS011;51601;51.356;12.458;2022-12-24T23:40:04;15.13;;;5.33;;
65033;SDS011;51601;51.356;12.458;2022-12-24T23:44:23;15.80;;;5.25;;
65033;SDS011;51601;51.356;12.458;2022-12-24T23:48:51;16.92;;;4.88;;
65033;SDS011;51601;51.356;12.458;2022-12-24T23:53:12;16.30;;;5.38;;
65033;SDS011;51601;51.356;12.458;2022-12-24T23:57:31;16.50;;;5.10;;
